Time;durP1;ratioP1;P1;durP2;ratioP2;P2;SDS_P1;SDS_P2;PMS_P1;PMS_P2;Temp;Humidity;BMP_temperature;BMP_pressure;BME280_temperature;BME280_humidity;BME280_pressure;Samples;Min_cycle;Max_cycle;Signal;HPM_P1;HPM_P2
2023/01/24 00:02:21;;;;;;;30.30;16.13;;;;;;;;;;5117758;28;20208;-89
2023/01/24 00:04:48;;;;;;;27.17;16.67;;;;;;;;;;5117845;28;20200;-87
2023/01/24 00:07:17;;;;;;;25.47;15.50;;;;;;;;;;5117705;28;20219;-89
2023/01/24 00:09:44;;;;;;;26.37;15.90;;;;;;;;;;5117974;28;20335;-89
2023/01/24 00:12:11;;;;;;;28.37;15.67;;;;;;;;;;5112595;28;20204;-88
2023/01/24 00:14:38;;;;;;;31.80;17.00;;;;;;;;;;5117775;28;20197;-88
2023/01/24 00:17:07;;;;;;;26.20;14.73;;;;;;;;;;5109472;28;20231;-88
2023/01/24 00:19:34;;;;;;;27.07;15.60;;;;;;;;;;5097691;28;20217;-88
2023/01/24 00:22:02;;;;;;;26.63;16.03;;;;;;;;;;5106881;28;20573;-88
2023/01/24 00:24:32;;;;;;;28.07;15.60;;;;;;;;;;5107991;28;20227;-89
2023/01/24 00:27:00;;;;;;;27.83;15.73;;;;;;;;;;5107599;28;20848;-88
2023/01/24 00:29:27;;;;;;;26.73;15.73;;;;;;;;;;5107872;28;20237;-88
2023/01/24 00:31:55;;;;;;;25.07;15.73;;;;;;;;;;5107640;28;20198;-88
2023/01/24 00:34:22;;;;;;;29.13;16.77;;;;;;;;;;5104062;28;20228;-89
2023/01/24 00:36:49;;;;;;;29.27;17.03;;;;;;;;;;5097337;28;20865;-88
2023/01/24 00:39:17;;;;;;;29.50;16.60;;;;;;;;;;5097194;28;20235;-90
2023/01/24 00:41:45;;;;;;;26.80;16.00;;;;;;;;;;5095292;28;20236;-89
2023/01/24 00:44:13;;;;;;;27.17;16.40;;;;;;;;;;5096405;28;20242;-88
2023/01/24 00:46:41;;;;;;;29.73;16.30;;;;;;;;;;5096635;28;20221;-89
2023/01/24 00:49:08;;;;;;;28.47;16.90;;;;;;;;;;5096406;28;20202;-89
2023/01/24 00:51:35;;;;;;;30.87;16.80;;;;;;;;;;5096364;28;20258;-88
2023/01/24 00:54:03;;;;;;;27.23;16.57;;;;;;;;;;5096263;28;20229;-89
2023/01/24 00:56:30;;;;;;;28.90;17.17;;;;;;;;;;5095614;28;20723;-88
2023/01/24 00:58:59;;;;;;;29.57;16.80;;;;;;;;;;5096473;28;20282;-89
2023/01/24 01:01:26;;;;;;;29.63;17.43;;;;;;;;;;5106658;28;20653;-89
2023/01/24 01:03:56;;;;;;;29.37;17.40;;;;;;;;;;5116426;28;20213;-89
2023/01/24 01:06:24;;;;;;;30.50;17.90;;;;;;;;;;5116009;28;20187;-89
2023/01/24 01:08:51;;;;;;;29.97;17.10;;;;;;;;;;5116501;28;20223;-89
2023/01/24 01:11:18;;;;;;;28.73;17.53;;;;;;;;;;5115276;28;20322;-89
2023/01/24 01:13:48;;;;;;;34.33;19.00;;;;;;;;;;5115947;28;20232;-88
2023/01/24 01:16:18;;;;;;;28.87;17.43;;;;;;;;;;5115817;28;20188;-88
2023/01/24 01:18:46;;;;;;;30.77;18.03;;;;;;;;;;5115902;28;20187;-89
2023/01/24 01:21:14;;;;;;;32.43;18.23;;;;;;;;;;5116224;28;20218;-89
2023/01/24 01:23:41;;;;;;;32.20;18.03;;;;;;;;;;5116238;28;20214;-89
2023/01/24 01:26:10;;;;;;;33.50;18.87;;;;;;;;;;5115730;28;20243;-87
2023/01/24 01:28:37;;;;;;;30.70;17.57;;;;;;;;;;5115546;27;20222;-88
2023/01/24 01:31:05;;;;;;;33.03;18.43;;;;;;;;;;5115878;28;20262;-88
2023/01/24 01:33:34;;;;;;;32.50;18.40;;;;;;;;;;5115862;28;20624;-88
2023/01/24 01:36:01;;;;;;;34.23;18.50;;;;;;;;;;5115924;28;20191;-88
2023/01/24 01:38:29;;;;;;;32.80;18.37;;;;;;;;;;5115518;27;20224;-88
2023/01/24 01:40:56;;;;;;;36.50;19.60;;;;;;;;;;5115632;28;20577;-89
2023/01/24 01:43:25;;;;;;;34.47;18.90;;;;;;;;;;5115711;28;20211;-89
2023/01/24 01:45:52;;;;;;;35.37;19.47;;;;;;;;;;5115316;28;20716;-88
2023/01/24 01:48:26;;;;;;;35.37;19.67;;;;;;;;;;5115425;28;20238;-88
2023/01/24 01:51:01;;;;;;;34.57;18.90;;;;;;;;;;5115535;28;20237;-88
2023/01/24 01:53:30;;;;;;;34.03;19.10;;;;;;;;;;5115074;28;20216;-89
2023/01/24 01:56:01;;;;;;;32.83;18.80;;;;;;;;;;5115303;28;20228;-88
2023/01/24 01:58:29;;;;;;;37.13;20.77;;;;;;;;;;5115389;28;20226;-88
2023/01/24 02:00:56;;;;;;;38.67;19.43;;;;;;;;;;5115267;28;20615;-90
2023/01/24 02:03:39;;;;;;;36.17;20.07;;;;;;;;;;5115187;28;20285;-88
2023/01/24 02:06:09;;;;;;;34.97;19.70;;;;;;;;;;5114948;28;20189;-89
2023/01/24 02:08:37;;;;;;;36.57;21.00;;;;;;;;;;5114799;28;20283;-89
2023/01/24 02:16:01;;;;;;;36.60;20.13;;;;;;;;;;5114803;28;20240;-88
2023/01/24 02:16:36;;;;;;;35.10;19.53;;;;;;;;;;5114777;28;21672;-90
2023/01/24 02:19:03;;;;;;;35.53;19.30;;;;;;;;;;5114175;28;20225;-89
2023/01/24 02:21:32;;;;;;;33.97;19.57;;;;;;;;;;5114480;28;20552;-88
2023/01/24 02:24:03;;;;;;;34.73;19.83;;;;;;;;;;5114435;28;20286;-89
2023/01/24 02:26:32;;;;;;;35.57;20.13;;;;;;;;;;5114894;28;20630;-89
2023/01/24 02:29:01;;;;;;;37.40;19.87;;;;;;;;;;5114704;28;20219;-89
2023/01/24 02:31:28;;;;;;;35.50;20.07;;;;;;;;;;5114305;28;20226;-88
2023/01/24 02:33:55;;;;;;;36.33;20.43;;;;;;;;;;5114514;28;20197;-87
2023/01/24 02:36:24;;;;;;;36.30;20.80;;;;;;;;;;5114537;28;20231;-88
2023/01/24 02:38:54;;;;;;;34.70;19.77;;;;;;;;;;5114658;28;20200;-89
2023/01/24 02:41:23;;;;;;;37.53;19.83;;;;;;;;;;5113719;28;20303;-86
2023/01/24 02:43:54;;;;;;;33.83;19.83;;;;;;;;;;5114168;28;20228;-87
2023/01/24 02:46:21;;;;;;;35.00;19.53;;;;;;;;;;5113810;28;20603;-86
2023/01/24 02:48:51;;;;;;;35.63;20.23;;;;;;;;;;5113816;28;20225;-87
2023/01/24 02:54:03;;;;;;;38.33;20.57;;;;;;;;;;5114102;28;20273;-87
2023/01/24 02:59:16;;;;;;;35.27;19.57;;;;;;;;;;5113680;28;20329;-86
2023/01/24 03:01:44;;;;;;;33.73;19.00;;;;;;;;;;5116818;28;20192;-86
2023/01/24 03:04:12;;;;;;;35.17;19.93;;;;;;;;;;5120585;28;20251;-87
2023/01/24 03:06:39;;;;;;;37.03;20.13;;;;;;;;;;5112848;28;20593;-86
2023/01/24 03:09:18;;;;;;;33.93;19.47;;;;;;;;;;5113824;28;20621;-87
2023/01/24 03:11:45;;;;;;;34.83;19.70;;;;;;;;;;5113200;28;20278;-87
2023/01/24 03:36:19;;;;;;;33.43;19.37;;;;;;;;;;5112649;28;20242;-87
2023/01/24 03:41:31;;;;;;;33.37;18.83;;;;;;;;;;5113026;28;20630;-87
2023/01/24 03:43:59;;;;;;;32.27;19.13;;;;;;;;;;5113627;28;20283;-87
2023/01/24 03:46:26;;;;;;;32.97;18.70;;;;;;;;;;5112828;28;20718;-86
2023/01/24 03:48:55;;;;;;;34.67;19.77;;;;;;;;;;5113489;28;20291;-87
2023/01/24 03:54:07;;;;;;;34.83;19.40;;;;;;;;;;5113008;28;20214;-87
2023/01/24 03:56:34;;;;;;;33.47;18.63;;;;;;;;;;5112916;28;20281;-88
2023/01/24 03:59:01;;;;;;;34.97;19.23;;;;;;;;;;5112820;28;20234;-86
2023/01/24 04:01:29;;;;;;;33.40;17.80;;;;;;;;;;5112676;28;20656;-88
2023/01/24 04:03:57;;;;;;;34.20;18.50;;;;;;;;;;5112691;28;20190;-87
2023/01/24 04:06:25;;;;;;;32.50;18.67;;;;;;;;;;5112907;28;20189;-87
2023/01/24 04:08:52;;;;;;;33.03;18.50;;;;;;;;;;5112838;28;20284;-87
2023/01/24 04:11:19;;;;;;;36.17;20.07;;;;;;;;;;5105138;28;20260;-87
2023/01/24 04:13:46;;;;;;;35.93;19.70;;;;;;;;;;5092591;28;20225;-87
2023/01/24 04:16:16;;;;;;;34.20;19.57;;;;;;;;;;5092431;28;20313;-87
2023/01/24 04:18:45;;;;;;;36.00;19.50;;;;;;;;;;5092151;28;20225;-87
2023/01/24 04:21:13;;;;;;;35.70;19.93;;;;;;;;;;5091826;28;20292;-87
2023/01/24 04:23:41;;;;;;;36.80;19.67;;;;;;;;;;5092470;28;20237;-86
2023/01/24 04:26:08;;;;;;;35.13;20.03;;;;;;;;;;5095326;28;20280;-86
2023/01/24 04:28:35;;;;;;;35.43;20.13;;;;;;;;;;5103688;28;20236;-88
2023/01/24 04:31:03;;;;;;;36.83;19.40;;;;;;;;;;5092723;28;20692;-87
2023/01/24 04:33:30;;;;;;;36.80;19.73;;;;;;;;;;5092391;28;20233;-86
2023/01/24 04:35:58;;;;;;;35.53;19.83;;;;;;;;;;5094964;28;20224;-87
2023/01/24 04:38:27;;;;;;;34.77;19.23;;;;;;;;;;5096065;28;20197;-87
2023/01/24 04:41:01;;;;;;;34.17;19.63;;;;;;;;;;5096144;28;20283;-87
2023/01/24 04:43:28;;;;;;;36.93;20.30;;;;;;;;;;5095985;28;20601;-86
2023/01/24 04:45:56;;;;;;;38.03;20.60;;;;;;;;;;5095932;28;20283;-86
2023/01/24 04:48:23;;;;;;;36.30;20.73;;;;;;;;;;5095315;28;20314;-86
2023/01/24 04:50:51;;;;;;;36.97;20.63;;;;;;;;;;5095512;28;20781;-86
2023/01/24 04:53:18;;;;;;;35.53;20.07;;;;;;;;;;5095835;28;20295;-87
2023/01/24 04:55:46;;;;;;;36.63;20.33;;;;;;;;;;5095976;28;20282;-86
2023/01/24 04:58:14;;;;;;;36.20;20.00;;;;;;;;;;5095797;28;20189;-87
2023/01/24 05:00:41;;;;;;;38.57;21.33;;;;;;;;;;5095783;28;20217;-86
2023/01/24 05:03:08;;;;;;;39.70;20.37;;;;;;;;;;5094904;28;20283;-87
2023/01/24 05:05:36;;;;;;;36.97;19.97;;;;;;;;;;5094438;28;20232;-87
2023/01/24 05:08:03;;;;;;;37.90;21.13;;;;;;;;;;5095334;28;20286;-87
2023/01/24 05:10:30;;;;;;;36.00;20.13;;;;;;;;;;5095504;28;20282;-87
2023/01/24 05:12:59;;;;;;;37.30;20.90;;;;;;;;;;5115745;28;20246;-88
2023/01/24 05:15:27;;;;;;;36.10;20.27;;;;;;;;;;5115683;28;20217;-87
2023/01/24 05:17:54;;;;;;;42.70;22.27;;;;;;;;;;5115238;28;20195;-87
2023/01/24 05:20:21;;;;;;;36.90;21.47;;;;;;;;;;5115660;28;20192;-87
2023/01/24 05:22:48;;;;;;;35.03;20.57;;;;;;;;;;5115664;28;20234;-86
2023/01/24 05:25:16;;;;;;;36.17;20.63;;;;;;;;;;5115497;28;20187;-87
2023/01/24 05:27:43;;;;;;;39.53;21.07;;;;;;;;;;5115295;28;20259;-87
2023/01/24 05:30:13;;;;;;;38.27;21.63;;;;;;;;;;5115521;28;20187;-86
2023/01/24 05:32:40;;;;;;;39.13;21.10;;;;;;;;;;5114553;28;20320;-87
2023/01/24 05:35:08;;;;;;;38.87;21.20;;;;;;;;;;5115425;28;20199;-88
2023/01/24 05:37:37;;;;;;;37.67;21.50;;;;;;;;;;5115431;28;20234;-85
2023/01/24 05:40:05;;;;;;;37.83;21.87;;;;;;;;;;5115142;28;20663;-87
2023/01/24 05:42:32;;;;;;;41.73;22.47;;;;;;;;;;5115218;27;20198;-87
2023/01/24 05:44:59;;;;;;;42.80;23.10;;;;;;;;;;5114960;28;20223;-86
2023/01/24 05:47:28;;;;;;;40.17;22.43;;;;;;;;;;5114202;28;20295;-88
2023/01/24 05:49:55;;;;;;;40.67;22.13;;;;;;;;;;5115504;28;20285;-87
2023/01/24 05:52:23;;;;;;;40.40;21.87;;;;;;;;;;5114597;28;20226;-86
2023/01/24 05:54:50;;;;;;;44.13;23.50;;;;;;;;;;5114626;28;20241;-85
2023/01/24 05:57:18;;;;;;;42.90;22.83;;;;;;;;;;5111982;28;20229;-81
2023/01/24 05:59:45;;;;;;;41.90;22.73;;;;;;;;;;5108030;28;20232;-81
2023/01/24 06:02:12;;;;;;;38.60;21.73;;;;;;;;;;5113090;28;20194;-80
2023/01/24 06:04:41;;;;;;;43.27;22.87;;;;;;;;;;5113316;28;20224;-82
2023/01/24 06:07:08;;;;;;;42.67;22.30;;;;;;;;;;5113269;28;20306;-80
2023/01/24 06:09:36;;;;;;;42.00;22.50;;;;;;;;;;5113416;28;20228;-80
2023/01/24 06:12:03;;;;;;;42.70;23.27;;;;;;;;;;5113019;28;20238;-82
2023/01/24 06:14:30;;;;;;;42.00;23.27;;;;;;;;;;5103553;28;20281;-81
2023/01/24 06:16:57;;;;;;;43.17;22.07;;;;;;;;;;5104146;28;20230;-81
2023/01/24 06:19:25;;;;;;;43.97;22.67;;;;;;;;;;5108040;28;20300;-80
2023/01/24 06:22:00;;;;;;;45.23;23.13;;;;;;;;;;5099612;28;20290;-81
2023/01/24 06:24:28;;;;;;;45.37;23.63;;;;;;;;;;5112600;28;20693;-80
2023/01/24 06:26:56;;;;;;;44.30;22.93;;;;;;;;;;5112412;28;20652;-77
2023/01/24 06:29:23;;;;;;;42.17;22.87;;;;;;;;;;5111647;28;20578;-78
2023/01/24 06:31:56;;;;;;;43.70;23.10;;;;;;;;;;5112788;28;20250;-81
2023/01/24 06:34:28;;;;;;;43.50;22.67;;;;;;;;;;5112301;28;20280;-81
2023/01/24 06:37:02;;;;;;;43.73;23.53;;;;;;;;;;5112712;28;20227;-82
2023/01/24 06:39:30;;;;;;;44.07;23.27;;;;;;;;;;5112632;28;20202;-80
2023/01/24 06:41:57;;;;;;;42.70;23.07;;;;;;;;;;5111026;27;20222;-81
2023/01/24 06:44:25;;;;;;;44.50;23.47;;;;;;;;;;5127167;27;20254;-80
2023/01/24 06:46:52;;;;;;;44.37;24.07;;;;;;;;;;5132065;27;20238;-80
2023/01/24 06:49:20;;;;;;;44.50;23.97;;;;;;;;;;5132625;27;20228;-80
2023/01/24 06:51:51;;;;;;;43.53;23.30;;;;;;;;;;5132759;27;20226;-81
2023/01/24 06:54:19;;;;;;;44.50;23.57;;;;;;;;;;5132715;27;20538;-81
2023/01/24 06:56:47;;;;;;;42.30;22.97;;;;;;;;;;5133050;27;20252;-80
2023/01/24 06:59:14;;;;;;;41.20;22.67;;;;;;;;;;5131708;27;20278;-80
2023/01/24 07:01:41;;;;;;;40.23;21.77;;;;;;;;;;5132634;27;20244;-80
2023/01/24 07:04:08;;;;;;;42.90;23.03;;;;;;;;;;5132488;27;20213;-80
2023/01/24 07:06:36;;;;;;;43.37;22.73;;;;;;;;;;5132657;27;20247;-83
2023/01/24 07:09:03;;;;;;;44.73;22.43;;;;;;;;;;5133985;27;20199;-81
2023/01/24 07:11:31;;;;;;;44.40;23.17;;;;;;;;;;5126207;27;20694;-81
2023/01/24 07:13:59;;;;;;;45.97;23.53;;;;;;;;;;5111688;28;20234;-81
2023/01/24 07:16:26;;;;;;;44.10;23.87;;;;;;;;;;5111876;28;20234;-80
2023/01/24 07:18:53;;;;;;;42.57;22.47;;;;;;;;;;5112175;28;20720;-82
2023/01/24 07:21:21;;;;;;;41.30;22.20;;;;;;;;;;5111964;28;20290;-80
2023/01/24 07:23:49;;;;;;;43.03;22.27;;;;;;;;;;5111858;28;20287;-81
2023/01/24 07:26:17;;;;;;;42.43;22.43;;;;;;;;;;5111551;28;20240;-80
2023/01/24 07:28:45;;;;;;;42.60;22.67;;;;;;;;;;5111339;28;20317;-81
2023/01/24 07:31:14;;;;;;;40.53;22.07;;;;;;;;;;5111839;28;20286;-81
2023/01/24 07:33:41;;;;;;;45.27;23.70;;;;;;;;;;5111728;28;20253;-81
2023/01/24 07:36:15;;;;;;;44.57;22.97;;;;;;;;;;5111672;28;20710;-80
2023/01/24 07:38:42;;;;;;;43.33;22.57;;;;;;;;;;5111674;28;20234;-81
2023/01/24 07:41:10;;;;;;;42.60;23.07;;;;;;;;;;5111812;28;20247;-81
2023/01/24 07:43:38;;;;;;;44.33;22.67;;;;;;;;;;5111785;28;20653;-81
2023/01/24 07:46:06;;;;;;;43.40;23.20;;;;;;;;;;5111628;28;20244;-81
2023/01/24 07:48:34;;;;;;;47.67;23.70;;;;;;;;;;5111700;28;20228;-80
2023/01/24 07:51:02;;;;;;;45.10;23.40;;;;;;;;;;5111642;28;20661;-81
2023/01/24 07:53:29;;;;;;;46.03;23.87;;;;;;;;;;5111313;28;20811;-81
2023/01/24 07:55:59;;;;;;;47.70;24.70;;;;;;;;;;5110916;28;20290;-80
2023/01/24 07:58:26;;;;;;;44.43;23.37;;;;;;;;;;5111879;28;20228;-81
2023/01/24 08:00:54;;;;;;;45.83;23.23;;;;;;;;;;5112019;28;20246;-80
2023/01/24 08:03:22;;;;;;;44.60;24.40;;;;;;;;;;5111793;28;20213;-81
2023/01/24 08:05:49;;;;;;;46.83;23.70;;;;;;;;;;5111884;28;20255;-80
2023/01/24 08:08:17;;;;;;;43.70;23.67;;;;;;;;;;5112161;28;20230;-81
2023/01/24 08:10:44;;;;;;;46.13;22.77;;;;;;;;;;5113721;28;20282;-80
2023/01/24 08:13:11;;;;;;;47.83;24.40;;;;;;;;;;5115293;28;20324;-81
2023/01/24 08:15:38;;;;;;;44.17;23.10;;;;;;;;;;5115622;28;20234;-81
2023/01/24 08:18:05;;;;;;;43.10;23.03;;;;;;;;;;5115831;28;20195;-81
2023/01/24 08:20:34;;;;;;;49.37;23.60;;;;;;;;;;5115380;28;20311;-80
2023/01/24 08:23:01;;;;;;;45.87;22.87;;;;;;;;;;5115481;28;20258;-81
2023/01/24 08:25:30;;;;;;;47.80;23.17;;;;;;;;;;5114851;28;20233;-81
2023/01/24 08:27:57;;;;;;;46.80;23.57;;;;;;;;;;5115600;28;20228;-81
2023/01/24 08:30:24;;;;;;;44.67;23.53;;;;;;;;;;5114883;28;20233;-79
2023/01/24 08:32:59;;;;;;;50.30;24.67;;;;;;;;;;5115305;28;20233;-81
2023/01/24 08:35:27;;;;;;;48.70;23.40;;;;;;;;;;5114932;28;20734;-80
2023/01/24 08:37:55;;;;;;;47.17;24.07;;;;;;;;;;5114941;28;20607;-80
2023/01/24 08:40:23;;;;;;;44.97;23.40;;;;;;;;;;5114343;28;20292;-80
2023/01/24 08:42:50;;;;;;;44.53;22.53;;;;;;;;;;5115595;28;20201;-81
2023/01/24 08:45:17;;;;;;;49.70;24.07;;;;;;;;;;5114924;27;20321;-81
2023/01/24 08:47:44;;;;;;;46.50;22.60;;;;;;;;;;5114925;28;20227;-80
2023/01/24 08:50:14;;;;;;;44.13;23.30;;;;;;;;;;5114895;28;20228;-80
2023/01/24 08:52:41;;;;;;;43.03;23.13;;;;;;;;;;5114659;28;20232;-81
2023/01/24 08:55:10;;;;;;;48.27;23.70;;;;;;;;;;5114382;28;20724;-81
2023/01/24 08:57:38;;;;;;;45.17;24.20;;;;;;;;;;5114946;28;20283;-81
2023/01/24 09:00:05;;;;;;;47.80;23.97;;;;;;;;;;5114721;28;20300;-81
2023/01/24 09:02:36;;;;;;;45.20;23.23;;;;;;;;;;5114668;28;20292;-81
2023/01/24 09:05:03;;;;;;;46.10;23.60;;;;;;;;;;5115056;28;20206;-81
2023/01/24 09:07:31;;;;;;;46.67;23.87;;;;;;;;;;5114910;28;20252;-80
2023/01/24 09:09:58;;;;;;;45.97;23.00;;;;;;;;;;5114228;28;20228;-81
2023/01/24 09:12:26;;;;;;;44.40;23.43;;;;;;;;;;5114345;28;20309;-81
2023/01/24 09:14:54;;;;;;;46.70;23.17;;;;;;;;;;5114428;28;20200;-81
2023/01/24 09:17:21;;;;;;;49.47;24.10;;;;;;;;;;5114725;28;20721;-80
2023/01/24 09:19:49;;;;;;;44.10;23.07;;;;;;;;;;5114144;28;20293;-81
2023/01/24 09:22:16;;;;;;;45.27;23.70;;;;;;;;;;5114164;28;20200;-81
2023/01/24 09:24:43;;;;;;;48.90;24.87;;;;;;;;;;5114232;28;20230;-81
2023/01/24 09:27:11;;;;;;;44.23;22.33;;;;;;;;;;5114177;28;20236;-80
2023/01/24 09:29:40;;;;;;;47.33;22.90;;;;;;;;;;5114237;28;20217;-81
2023/01/24 09:32:07;;;;;;;44.47;23.30;;;;;;;;;;5113854;28;20282;-80
2023/01/24 09:34:34;;;;;;;50.67;24.00;;;;;;;;;;5113896;28;20293;-81
2023/01/24 09:37:01;;;;;;;45.57;23.23;;;;;;;;;;5114461;27;20228;-80
2023/01/24 09:39:29;;;;;;;46.47;23.27;;;;;;;;;;5113827;28;20284;-81
2023/01/24 09:42:00;;;;;;;47.07;23.17;;;;;;;;;;5114188;28;20313;-81
2023/01/24 09:44:35;;;;;;;45.60;24.23;;;;;;;;;;5113710;28;20197;-80
2023/01/24 09:47:08;;;;;;;45.00;23.33;;;;;;;;;;5114221;28;20222;-80
2023/01/24 09:49:38;;;;;;;45.63;22.97;;;;;;;;;;5114272;28;20749;-81
2023/01/24 09:52:08;;;;;;;43.13;22.60;;;;;;;;;;5113740;28;20224;-81
2023/01/24 09:54:37;;;;;;;47.27;23.23;;;;;;;;;;5113823;28;20296;-82
2023/01/24 09:57:10;;;;;;;42.63;22.37;;;;;;;;;;5113394;28;20382;-81
2023/01/24 09:59:40;;;;;;;45.70;22.87;;;;;;;;;;5114024;28;20291;-81
2023/01/24 10:02:17;;;;;;;42.33;21.50;;;;;;;;;;5113542;28;20213;-81
2023/01/24 10:04:44;;;;;;;42.63;22.30;;;;;;;;;;5113386;28;20672;-81
2023/01/24 10:07:31;;;;;;;45.77;23.10;;;;;;;;;;5112909;28;20288;-81
2023/01/24 10:10:07;;;;;;;42.90;21.97;;;;;;;;;;5113394;28;20292;-81
2023/01/24 10:12:47;;;;;;;45.87;22.30;;;;;;;;;;5112599;28;20788;-81
2023/01/24 10:15:24;;;;;;;43.87;22.17;;;;;;;;;;5113165;28;20292;-81
2023/01/24 10:17:59;;;;;;;46.00;22.40;;;;;;;;;;5113368;28;20736;-81
2023/01/24 10:20:49;;;;;;;44.50;22.40;;;;;;;;;;5113234;28;20285;-81
2023/01/24 10:23:17;;;;;;;44.83;22.37;;;;;;;;;;5113267;28;20239;-81
2023/01/24 10:25:51;;;;;;;44.53;22.90;;;;;;;;;;5112920;28;20297;-81
2023/01/24 10:28:22;;;;;;;43.63;22.30;;;;;;;;;;5112943;28;20235;-81
2023/01/24 10:30:53;;;;;;;43.23;21.83;;;;;;;;;;5113213;28;20683;-80
2023/01/24 10:33:22;;;;;;;44.03;22.97;;;;;;;;;;5112289;28;20324;-80
2023/01/24 10:35:55;;;;;;;42.87;21.80;;;;;;;;;;5112120;28;20220;-80
2023/01/24 10:38:22;;;;;;;47.20;23.23;;;;;;;;;;5112961;28;20228;-81
2023/01/24 10:40:51;;;;;;;42.87;21.70;;;;;;;;;;5113164;28;20228;-81
2023/01/24 10:43:19;;;;;;;45.10;22.40;;;;;;;;;;5112519;28;20303;-81
2023/01/24 10:45:51;;;;;;;45.20;22.07;;;;;;;;;;5112493;28;20271;-81
2023/01/24 10:48:25;;;;;;;41.10;22.00;;;;;;;;;;5112893;28;20644;-80
2023/01/24 10:50:52;;;;;;;44.90;22.30;;;;;;;;;;5112832;28;20220;-80
2023/01/24 10:53:24;;;;;;;43.97;21.77;;;;;;;;;;5112342;28;20768;-80
2023/01/24 10:55:58;;;;;;;43.43;21.37;;;;;;;;;;5112663;28;20250;-81
2023/01/24 10:58:26;;;;;;;40.97;20.63;;;;;;;;;;5112353;28;20287;-81
2023/01/24 11:00:58;;;;;;;44.33;22.17;;;;;;;;;;5112310;28;20289;-81
2023/01/24 11:03:28;;;;;;;40.03;21.20;;;;;;;;;;5112676;28;20253;-81
2023/01/24 11:05:56;;;;;;;44.47;21.47;;;;;;;;;;5111773;28;20288;-81
2023/01/24 11:08:24;;;;;;;43.27;21.17;;;;;;;;;;5112094;28;20280;-81
2023/01/24 11:10:55;;;;;;;41.50;22.23;;;;;;;;;;5112158;28;20197;-81
2023/01/24 11:13:36;;;;;;;43.27;22.10;;;;;;;;;;5112214;28;20303;-81
2023/01/24 11:16:05;;;;;;;46.43;24.13;;;;;;;;;;5112420;28;20287;-81
2023/01/24 11:18:35;;;;;;;42.47;21.47;;;;;;;;;;5112326;28;20724;-81
2023/01/24 11:21:09;;;;;;;47.63;22.40;;;;;;;;;;5111942;28;20205;-81
2023/01/24 11:23:36;;;;;;;40.10;21.17;;;;;;;;;;5112526;28;20196;-81
2023/01/24 11:26:05;;;;;;;43.27;21.97;;;;;;;;;;5112087;28;20228;-80
2023/01/24 11:28:33;;;;;;;41.43;22.47;;;;;;;;;;5111600;28;20331;-80
2023/01/24 11:31:02;;;;;;;43.00;21.37;;;;;;;;;;5111892;28;20287;-81
2023/01/24 11:33:38;;;;;;;44.63;21.07;;;;;;;;;;5111391;28;20244;-81
2023/01/24 11:36:11;;;;;;;45.73;22.67;;;;;;;;;;5112093;28;20295;-81
2023/01/24 11:38:40;;;;;;;42.83;21.27;;;;;;;;;;5112312;28;20225;-81
2023/01/24 11:41:11;;;;;;;42.47;22.17;;;;;;;;;;5111816;28;20194;-81
2023/01/24 11:43:56;;;;;;;41.83;20.87;;;;;;;;;;5112842;28;20197;-82
2023/01/24 11:46:31;;;;;;;43.07;21.67;;;;;;;;;;5115780;27;20280;-81
2023/01/24 11:49:06;;;;;;;51.77;25.03;;;;;;;;;;5115639;28;20280;-81
2023/01/24 11:51:40;;;;;;;51.13;26.73;;;;;;;;;;5115733;28;20205;-82
2023/01/24 11:54:16;;;;;;;49.77;25.10;;;;;;;;;;5116568;28;20304;-81
2023/01/24 11:56:48;;;;;;;42.40;22.57;;;;;;;;;;5116613;28;20232;-81
2023/01/24 11:59:31;;;;;;;53.00;26.83;;;;;;;;;;5115793;27;20280;-81
2023/01/24 12:02:06;;;;;;;55.30;30.47;;;;;;;;;;5115679;28;20288;-80
2023/01/24 12:04:52;;;;;;;49.03;27.10;;;;;;;;;;5115685;28;20737;-81
2023/01/24 12:07:24;;;;;;;55.07;29.77;;;;;;;;;;5115400;28;20194;-82
2023/01/24 12:09:56;;;;;;;49.67;26.77;;;;;;;;;;5115740;28;20750;-81
2023/01/24 12:12:29;;;;;;;49.93;24.97;;;;;;;;;;5115385;28;20284;-80
2023/01/24 12:15:10;;;;;;;44.47;23.40;;;;;;;;;;5115888;28;20233;-80
2023/01/24 12:17:44;;;;;;;42.97;22.93;;;;;;;;;;5115055;28;20190;-81
2023/01/24 12:20:24;;;;;;;50.47;26.97;;;;;;;;;;5115869;28;20616;-81
2023/01/24 12:22:53;;;;;;;43.43;23.20;;;;;;;;;;5115791;28;20232;-82
2023/01/24 12:25:24;;;;;;;45.13;24.47;;;;;;;;;;5115362;28;20242;-81
2023/01/24 12:27:52;;;;;;;44.43;22.57;;;;;;;;;;5115302;28;20792;-82
2023/01/24 12:30:30;;;;;;;41.07;21.33;;;;;;;;;;5115501;28;20194;-81
2023/01/24 12:33:02;;;;;;;40.53;20.60;;;;;;;;;;5115296;28;20631;-82
2023/01/24 12:35:33;;;;;;;44.13;21.80;;;;;;;;;;5115210;28;20200;-81
2023/01/24 12:38:04;;;;;;;41.07;21.00;;;;;;;;;;5115929;28;20228;-81
2023/01/24 12:40:37;;;;;;;44.63;22.20;;;;;;;;;;5115224;28;20202;-81
2023/01/24 12:43:06;;;;;;;42.13;21.37;;;;;;;;;;5115207;28;20288;-81
2023/01/24 12:45:36;;;;;;;46.13;21.93;;;;;;;;;;5115036;28;20221;-81
2023/01/24 12:48:08;;;;;;;41.63;21.43;;;;;;;;;;5114741;28;20285;-81
2023/01/24 12:50:40;;;;;;;41.30;21.77;;;;;;;;;;5114849;28;20192;-81
2023/01/24 12:53:12;;;;;;;41.47;21.77;;;;;;;;;;5114648;28;20228;-81
2023/01/24 12:55:45;;;;;;;38.97;21.07;;;;;;;;;;5114455;28;20641;-82
2023/01/24 12:58:15;;;;;;;44.23;24.40;;;;;;;;;;5114974;28;20254;-81
2023/01/24 13:00:48;;;;;;;41.63;22.17;;;;;;;;;;5113997;28;20198;-82
2023/01/24 13:03:29;;;;;;;41.00;21.30;;;;;;;;;;5114772;28;20277;-81
2023/01/24 13:06:03;;;;;;;42.70;21.70;;;;;;;;;;5114486;28;20631;-81
2023/01/24 13:08:35;;;;;;;44.90;23.33;;;;;;;;;;5114344;28;20662;-81
2023/01/24 13:11:09;;;;;;;40.33;21.23;;;;;;;;;;5114872;28;20636;-81
2023/01/24 13:13:38;;;;;;;43.93;22.30;;;;;;;;;;5114352;28;20319;-81
2023/01/24 13:16:11;;;;;;;42.27;21.77;;;;;;;;;;5113795;28;20254;-81
2023/01/24 13:18:44;;;;;;;41.43;21.70;;;;;;;;;;5114408;28;20217;-82
2023/01/24 13:21:16;;;;;;;41.53;22.43;;;;;;;;;;5114376;28;20228;-81
2023/01/24 13:23:48;;;;;;;43.43;22.33;;;;;;;;;;5114215;28;20202;-81
2023/01/24 13:26:24;;;;;;;38.83;21.20;;;;;;;;;;5114135;28;20884;-81
2023/01/24 13:28:57;;;;;;;41.87;22.63;;;;;;;;;;5114302;28;20193;-81
2023/01/24 13:31:30;;;;;;;42.63;22.10;;;;;;;;;;5113800;28;20634;-80
2023/01/24 13:33:59;;;;;;;42.27;22.03;;;;;;;;;;5114062;28;20233;-81
2023/01/24 13:36:30;;;;;;;40.47;20.93;;;;;;;;;;5114053;28;20224;-81
2023/01/24 13:38:58;;;;;;;45.17;22.23;;;;;;;;;;5114127;28;20194;-81
2023/01/24 13:41:35;;;;;;;43.50;21.67;;;;;;;;;;5114125;28;20304;-81
2023/01/24 13:44:02;;;;;;;41.60;21.63;;;;;;;;;;5113893;28;20284;-81
2023/01/24 13:46:48;;;;;;;40.80;21.60;;;;;;;;;;5114101;28;20232;-81
2023/01/24 13:49:18;;;;;;;39.07;20.43;;;;;;;;;;5113444;28;20198;-80
2023/01/24 13:51:50;;;;;;;42.70;21.43;;;;;;;;;;5113530;28;20681;-81
2023/01/24 13:54:19;;;;;;;40.47;21.70;;;;;;;;;;5114106;28;20308;-81
2023/01/24 13:57:01;;;;;;;40.97;21.37;;;;;;;;;;5113931;28;20228;-81
2023/01/24 13:59:28;;;;;;;42.40;21.30;;;;;;;;;;5112860;28;20280;-81
2023/01/24 14:01:55;;;;;;;45.13;22.50;;;;;;;;;;5113474;28;20233;-81
2023/01/24 14:04:37;;;;;;;42.60;22.23;;;;;;;;;;5113318;28;20290;-81
2023/01/24 14:07:18;;;;;;;42.10;21.70;;;;;;;;;;5112443;28;20651;-81
2023/01/24 14:09:46;;;;;;;41.77;21.83;;;;;;;;;;5113266;28;20733;-81
2023/01/24 14:12:18;;;;;;;42.00;22.00;;;;;;;;;;5113372;27;20293;-82
2023/01/24 14:15:03;;;;;;;41.07;21.43;;;;;;;;;;5112589;28;20316;-81
2023/01/24 14:17:48;;;;;;;42.37;22.40;;;;;;;;;;5113180;28;20285;-81
2023/01/24 14:20:21;;;;;;;43.17;21.23;;;;;;;;;;5113889;28;20194;-80
2023/01/24 14:22:53;;;;;;;43.87;22.17;;;;;;;;;;5113900;28;20216;-82
2023/01/24 14:25:46;;;;;;;44.50;22.73;;;;;;;;;;5113269;28;20232;-81
2023/01/24 14:28:33;;;;;;;40.73;21.70;;;;;;;;;;5112659;28;20742;-81
2023/01/24 14:31:02;;;;;;;45.07;21.73;;;;;;;;;;5112810;28;20229;-81
2023/01/24 14:33:35;;;;;;;43.23;22.57;;;;;;;;;;5112870;28;20284;-81
2023/01/24 14:36:05;;;;;;;44.27;21.67;;;;;;;;;;5113219;28;20266;-81
2023/01/24 14:38:34;;;;;;;41.43;22.10;;;;;;;;;;5112773;28;20221;-81
2023/01/24 14:41:01;;;;;;;41.30;21.33;;;;;;;;;;5112877;28;20213;-80
2023/01/24 14:43:34;;;;;;;42.40;22.03;;;;;;;;;;5112243;28;20650;-81
2023/01/24 14:46:10;;;;;;;41.53;21.03;;;;;;;;;;5112554;28;20225;-80
2023/01/24 14:48:37;;;;;;;39.83;20.90;;;;;;;;;;5113106;28;20487;-80
2023/01/24 14:51:06;;;;;;;42.07;21.23;;;;;;;;;;5113172;28;20225;-81
2023/01/24 14:53:37;;;;;;;40.13;21.03;;;;;;;;;;5113181;28;20200;-82
2023/01/24 14:56:10;;;;;;;39.10;20.53;;;;;;;;;;5113100;28;20207;-80
2023/01/24 14:58:37;;;;;;;38.97;21.13;;;;;;;;;;5112957;28;20238;-81
2023/01/24 15:01:05;;;;;;;41.10;21.47;;;;;;;;;;5112717;28;20252;-80
2023/01/24 15:03:32;;;;;;;37.33;20.67;;;;;;;;;;5112662;28;20631;-81
2023/01/24 15:06:01;;;;;;;41.43;20.90;;;;;;;;;;5112278;28;20236;-82
2023/01/24 15:08:29;;;;;;;48.10;22.87;;;;;;;;;;5112566;28;20631;-81